Depue Junction, Illinois
Current Conditions -  °F | °C
As of 2:35 PM on Thursday 29 Jan 2015 (Local Time) from KVYS Reporting Station
Overcast Overcast  
Wind Chill: 27°   Ceiling: 2800
Heat Index: 36°   Visibility: 10mi
Dew Point: 31°   Wind: 14mph
Humidity: 82%   Direction: 300°WNW
Pressure: 30.09"   Gusts: NA
Location:  41.3278°N, 89.2998°W
Report Text: KVYS 292035Z AUTO 30012KT 10SM SCT020 OVC028 02/M01 A3009 RMK AO2 T00201007
Loading
Personal Weather Stations






























Interactive Weather Map New forecast layout! Learn more

10-Day Weather Forecast

Advertisements
Track Severe Weather on mobile